sensor_id;sensor_type;location;lat;lon;timestamp;temperature;humidity
65239;SHT30;51827;51.186;6.926;2022-07-15T00:00:24;25.69;52.02
65239;SHT30;51827;51.186;6.926;2022-07-15T00:01:25;25.67;52.00
65239;SHT30;51827;51.186;6.926;2022-07-15T00:02:25;25.69;51.98
65239;SHT30;51827;51.186;6.926;2022-07-15T00:03:25;25.67;51.98
65239;SHT30;51827;51.186;6.926;2022-07-15T00:04:26;25.70;52.02
65239;SHT30;51827;51.186;6.926;2022-07-15T00:05:26;25.70;51.94
65239;SHT30;51827;51.186;6.926;2022-07-15T00:06:27;25.69;52.01
65239;SHT30;51827;51.186;6.926;2022-07-15T00:07:27;25.70;51.95
65239;SHT30;51827;51.186;6.926;2022-07-15T00:08:27;25.70;52.00
65239;SHT30;51827;51.186;6.926;2022-07-15T00:09:28;25.70;52.03
65239;SHT30;51827;51.186;6.926;2022-07-15T00:10:28;25.67;52.01
65239;SHT30;51827;51.186;6.926;2022-07-15T00:11:28;25.69;52.02
65239;SHT30;51827;51.186;6.926;2022-07-15T00:12:29;25.67;52.02
65239;SHT30;51827;51.186;6.926;2022-07-15T00:13:29;25.70;52.04
65239;SHT30;51827;51.186;6.926;2022-07-15T00:14:29;25.67;52.00
65239;SHT30;51827;51.186;6.926;2022-07-15T00:15:31;25.67;51.99
65239;SHT30;51827;51.186;6.926;2022-07-15T00:16:31;25.67;52.03
65239;SHT30;51827;51.186;6.926;2022-07-15T00:17:32;25.69;52.04
65239;SHT30;51827;51.186;6.926;2022-07-15T00:18:32;25.67;52.06
65239;SHT30;51827;51.186;6.926;2022-07-15T00:19:33;25.66;52.05
65239;SHT30;51827;51.186;6.926;2022-07-15T00:20:34;25.66;52.04
65239;SHT30;51827;51.186;6.926;2022-07-15T00:21:34;25.66;52.00
65239;SHT30;51827;51.186;6.926;2022-07-15T00:22:34;25.66;52.02
65239;SHT30;51827;51.186;6.926;2022-07-15T00:23:35;25.69;52.06
65239;SHT30;51827;51.186;6.926;2022-07-15T00:24:35;25.66;52.04
65239;SHT30;51827;51.186;6.926;2022-07-15T00:25:35;25.66;52.05
65239;SHT30;51827;51.186;6.926;2022-07-15T00:26:36;25.65;52.05
65239;SHT30;51827;51.186;6.926;2022-07-15T00:27:50;25.66;52.08
65239;SHT30;51827;51.186;6.926;2022-07-15T00:28:50;25.66;52.08
65239;SHT30;51827;51.186;6.926;2022-07-15T00:29:50;25.65;52.08
65239;SHT30;51827;51.186;6.926;2022-07-15T00:30:51;25.66;52.10
65239;SHT30;51827;51.186;6.926;2022-07-15T00:31:52;25.65;52.09
65239;SHT30;51827;51.186;6.926;2022-07-15T00:32:52;25.66;52.08
65239;SHT30;51827;51.186;6.926;2022-07-15T00:33:53;25.65;52.11
65239;SHT30;51827;51.186;6.926;2022-07-15T00:34:53;25.67;52.06
65239;SHT30;51827;51.186;6.926;2022-07-15T00:35:54;25.67;52.11
65239;SHT30;51827;51.186;6.926;2022-07-15T00:36:54;25.66;52.08
65239;SHT30;51827;51.186;6.926;2022-07-15T00:37:54;25.65;52.09
65239;SHT30;51827;51.186;6.926;2022-07-15T00:38:54;25.65;52.06
65239;SHT30;51827;51.186;6.926;2022-07-15T00:39:55;25.66;52.12
65239;SHT30;51827;51.186;6.926;2022-07-15T00:40:55;25.65;52.10
65239;SHT30;51827;51.186;6.926;2022-07-15T00:41:55;25.63;52.06
65239;SHT30;51827;51.186;6.926;2022-07-15T00:42:56;25.63;52.08
65239;SHT30;51827;51.186;6.926;2022-07-15T00:43:57;25.63;52.07
65239;SHT30;51827;51.186;6.926;2022-07-15T00:44:59;25.65;52.09
65239;SHT30;51827;51.186;6.926;2022-07-15T00:45:59;25.63;52.08
65239;SHT30;51827;51.186;6.926;2022-07-15T00:46:59;25.65;52.10
65239;SHT30;51827;51.186;6.926;2022-07-15T00:48:00;25.65;52.07
65239;SHT30;51827;51.186;6.926;2022-07-15T00:49:02;25.63;52.11
65239;SHT30;51827;51.186;6.926;2022-07-15T00:50:02;25.62;52.15
65239;SHT30;51827;51.186;6.926;2022-07-15T00:51:03;25.65;52.12
65239;SHT30;51827;51.186;6.926;2022-07-15T00:52:03;25.62;52.09
65239;SHT30;51827;51.186;6.926;2022-07-15T00:53:07;25.62;52.14
65239;SHT30;51827;51.186;6.926;2022-07-15T00:54:09;25.62;52.11
65239;SHT30;51827;51.186;6.926;2022-07-15T00:55:11;25.62;52.10
65239;SHT30;51827;51.186;6.926;2022-07-15T00:56:13;25.62;52.10
65239;SHT30;51827;51.186;6.926;2022-07-15T00:57:16;25.65;52.11
65239;SHT30;51827;51.186;6.926;2022-07-15T00:58:21;25.60;52.07
65239;SHT30;51827;51.186;6.926;2022-07-15T00:59:24;25.62;52.15
65239;SHT30;51827;51.186;6.926;2022-07-15T01:00:24;25.62;52.12
65239;SHT30;51827;51.186;6.926;2022-07-15T01:01:25;25.63;52.11
65239;SHT30;51827;51.186;6.926;2022-07-15T01:02:25;25.63;52.08
65239;SHT30;51827;51.186;6.926;2022-07-15T01:03:26;25.63;52.16
65239;SHT30;51827;51.186;6.926;2022-07-15T01:04:28;25.60;52.08
65239;SHT30;51827;51.186;6.926;2022-07-15T01:05:29;25.62;52.07
65239;SHT30;51827;51.186;6.926;2022-07-15T01:06:30;25.62;52.06
65239;SHT30;51827;51.186;6.926;2022-07-15T01:07:31;25.62;52.06
65239;SHT30;51827;51.186;6.926;2022-07-15T01:08:31;25.62;52.06
65239;SHT30;51827;51.186;6.926;2022-07-15T01:09:32;25.60;52.02
65239;SHT30;51827;51.186;6.926;2022-07-15T01:10:34;25.62;52.08
65239;SHT30;51827;51.186;6.926;2022-07-15T01:11:35;25.60;52.06
65239;SHT30;51827;51.186;6.926;2022-07-15T01:12:36;25.62;52.04
65239;SHT30;51827;51.186;6.926;2022-07-15T01:13:37;25.62;52.05
65239;SHT30;51827;51.186;6.926;2022-07-15T01:14:37;25.59;52.08
65239;SHT30;51827;51.186;6.926;2022-07-15T01:15:37;25.60;52.04
65239;SHT30;51827;51.186;6.926;2022-07-15T01:16:37;25.60;52.05
65239;SHT30;51827;51.186;6.926;2022-07-15T01:17:38;25.59;52.05
65239;SHT30;51827;51.186;6.926;2022-07-15T01:18:38;25.62;52.07
65239;SHT30;51827;51.186;6.926;2022-07-15T01:19:38;25.59;52.07
65239;SHT30;51827;51.186;6.926;2022-07-15T01:20:40;25.60;52.07
65239;SHT30;51827;51.186;6.926;2022-07-15T01:21:40;25.59;52.11
65239;SHT30;51827;51.186;6.926;2022-07-15T01:22:41;25.59;52.04
65239;SHT30;51827;51.186;6.926;2022-07-15T01:23:41;25.60;52.07
65239;SHT30;51827;51.186;6.926;2022-07-15T01:24:41;25.57;52.09
65239;SHT30;51827;51.186;6.926;2022-07-15T01:25:42;25.60;52.04
65239;SHT30;51827;51.186;6.926;2022-07-15T01:26:42;25.60;52.04
65239;SHT30;51827;51.186;6.926;2022-07-15T01:27:42;25.57;52.02
65239;SHT30;51827;51.186;6.926;2022-07-15T01:28:43;25.60;52.02
65239;SHT30;51827;51.186;6.926;2022-07-15T01:29:44;25.59;52.02
65239;SHT30;51827;51.186;6.926;2022-07-15T01:30:44;25.59;52.05
65239;SHT30;51827;51.186;6.926;2022-07-15T01:31:44;25.56;52.04
65239;SHT30;51827;51.186;6.926;2022-07-15T01:32:44;25.57;52.06
65239;SHT30;51827;51.186;6.926;2022-07-15T01:33:45;25.60;52.04
65239;SHT30;51827;51.186;6.926;2022-07-15T01:34:45;25.57;52.04
65239;SHT30;51827;51.186;6.926;2022-07-15T01:35:45;25.56;52.04
65239;SHT30;51827;51.186;6.926;2022-07-15T01:36:46;25.57;52.07
65239;SHT30;51827;51.186;6.926;2022-07-15T01:37:46;25.59;52.11
65239;SHT30;51827;51.186;6.926;2022-07-15T01:38:46;25.57;52.05
65239;SHT30;51827;51.186;6.926;2022-07-15T01:39:47;25.59;52.03
65239;SHT30;51827;51.186;6.926;2022-07-15T01:40:47;25.57;52.09
65239;SHT30;51827;51.186;6.926;2022-07-15T01:41:47;25.57;52.07
65239;SHT30;51827;51.186;6.926;2022-07-15T01:42:47;25.56;52.05
65239;SHT30;51827;51.186;6.926;2022-07-15T01:43:48;25.57;52.07
65239;SHT30;51827;51.186;6.926;2022-07-15T01:44:48;25.59;52.10
65239;SHT30;51827;51.186;6.926;2022-07-15T01:45:48;25.57;52.12
65239;SHT30;51827;51.186;6.926;2022-07-15T01:46:49;25.56;52.10
65239;SHT30;51827;51.186;6.926;2022-07-15T01:47:50;25.60;52.05
65239;SHT30;51827;51.186;6.926;2022-07-15T01:48:50;25.54;52.04
65239;SHT30;51827;51.186;6.926;2022-07-15T01:49:50;25.56;52.03
65239;SHT30;51827;51.186;6.926;2022-07-15T01:50:51;25.56;52.07
65239;SHT30;51827;51.186;6.926;2022-07-15T01:51:53;25.56;52.04
65239;SHT30;51827;51.186;6.926;2022-07-15T01:52:53;25.56;52.00
65239;SHT30;51827;51.186;6.926;2022-07-15T01:53:54;25.56;52.01
65239;SHT30;51827;51.186;6.926;2022-07-15T01:54:54;25.54;52.03
65239;SHT30;51827;51.186;6.926;2022-07-15T01:55:54;25.57;52.03
65239;SHT30;51827;51.186;6.926;2022-07-15T01:56:55;25.54;52.06
65239;SHT30;51827;51.186;6.926;2022-07-15T01:57:55;25.56;52.01
65239;SHT30;51827;51.186;6.926;2022-07-15T01:58:55;25.54;52.04
65239;SHT30;51827;51.186;6.926;2022-07-15T01:59:56;25.54;52.07
65239;SHT30;51827;51.186;6.926;2022-07-15T02:00:56;25.56;52.03
65239;SHT30;51827;51.186;6.926;2022-07-15T02:01:57;25.56;52.05
65239;SHT30;51827;51.186;6.926;2022-07-15T02:02:57;25.51;52.02
65239;SHT30;51827;51.186;6.926;2022-07-15T02:03:57;25.54;52.02
65239;SHT30;51827;51.186;6.926;2022-07-15T02:04:58;25.56;52.00
65239;SHT30;51827;51.186;6.926;2022-07-15T02:05:58;25.54;52.04
65239;SHT30;51827;51.186;6.926;2022-07-15T02:06:58;25.54;52.04
65239;SHT30;51827;51.186;6.926;2022-07-15T02:07:59;25.53;52.06
65239;SHT30;51827;51.186;6.926;2022-07-15T02:08:59;25.51;51.98
65239;SHT30;51827;51.186;6.926;2022-07-15T02:09:59;25.53;52.02
65239;SHT30;51827;51.186;6.926;2022-07-15T02:10:59;25.53;52.05
65239;SHT30;51827;51.186;6.926;2022-07-15T02:12:00;25.50;52.07
65239;SHT30;51827;51.186;6.926;2022-07-15T02:13:00;25.53;52.10
65239;SHT30;51827;51.186;6.926;2022-07-15T02:14:01;25.50;52.08
65239;SHT30;51827;51.186;6.926;2022-07-15T02:15:01;25.51;52.05
65239;SHT30;51827;51.186;6.926;2022-07-15T02:16:02;25.51;52.08
65239;SHT30;51827;51.186;6.926;2022-07-15T02:17:02;25.54;52.05
65239;SHT30;51827;51.186;6.926;2022-07-15T02:18:03;25.51;52.04
65239;SHT30;51827;51.186;6.926;2022-07-15T02:19:04;25.51;52.07
65239;SHT30;51827;51.186;6.926;2022-07-15T02:20:04;25.50;52.08
65239;SHT30;51827;51.186;6.926;2022-07-15T02:21:05;25.53;52.08
65239;SHT30;51827;51.186;6.926;2022-07-15T02:22:05;25.49;52.06
65239;SHT30;51827;51.186;6.926;2022-07-15T02:23:05;25.51;52.06
65239;SHT30;51827;51.186;6.926;2022-07-15T02:24:06;25.53;52.05
65239;SHT30;51827;51.186;6.926;2022-07-15T02:25:06;25.53;52.08
65239;SHT30;51827;51.186;6.926;2022-07-15T02:26:07;25.54;52.08
65239;SHT30;51827;51.186;6.926;2022-07-15T02:27:07;25.47;52.07
65239;SHT30;51827;51.186;6.926;2022-07-15T02:28:07;25.51;52.10
65239;SHT30;51827;51.186;6.926;2022-07-15T02:29:07;25.51;52.09
65239;SHT30;51827;51.186;6.926;2022-07-15T02:30:08;25.50;52.04
65239;SHT30;51827;51.186;6.926;2022-07-15T02:31:09;25.50;52.05
65239;SHT30;51827;51.186;6.926;2022-07-15T02:32:09;25.49;52.05
65239;SHT30;51827;51.186;6.926;2022-07-15T02:33:10;25.50;52.10
65239;SHT30;51827;51.186;6.926;2022-07-15T02:34:10;25.46;52.08
65239;SHT30;51827;51.186;6.926;2022-07-15T02:35:10;25.49;52.05
65239;SHT30;51827;51.186;6.926;2022-07-15T02:36:11;25.49;52.08
65239;SHT30;51827;51.186;6.926;2022-07-15T02:37:11;25.49;52.05
65239;SHT30;51827;51.186;6.926;2022-07-15T02:38:12;25.49;52.09
65239;SHT30;51827;51.186;6.926;2022-07-15T02:39:12;25.49;52.06
65239;SHT30;51827;51.186;6.926;2022-07-15T02:40:12;25.50;52.03
65239;SHT30;51827;51.186;6.926;2022-07-15T02:41:13;25.49;52.06
65239;SHT30;51827;51.186;6.926;2022-07-15T02:42:13;25.47;52.06
65239;SHT30;51827;51.186;6.926;2022-07-15T02:43:13;25.50;52.06
65239;SHT30;51827;51.186;6.926;2022-07-15T02:44:14;25.49;52.08
65239;SHT30;51827;51.186;6.926;2022-07-15T02:45:14;25.50;52.09
65239;SHT30;51827;51.186;6.926;2022-07-15T02:46:14;25.46;52.05
65239;SHT30;51827;51.186;6.926;2022-07-15T02:47:15;25.49;52.01
65239;SHT30;51827;51.186;6.926;2022-07-15T02:48:15;25.49;52.03
65239;SHT30;51827;51.186;6.926;2022-07-15T02:49:16;25.49;52.04
65239;SHT30;51827;51.186;6.926;2022-07-15T02:50:17;25.47;52.06
65239;SHT30;51827;51.186;6.926;2022-07-15T02:51:17;25.49;52.04
65239;SHT30;51827;51.186;6.926;2022-07-15T02:52:17;25.47;52.05
65239;SHT30;51827;51.186;6.926;2022-07-15T02:53:17;25.49;52.05
65239;SHT30;51827;51.186;6.926;2022-07-15T02:54:18;25.47;52.04
65239;SHT30;51827;51.186;6.926;2022-07-15T02:55:18;25.46;52.00
65239;SHT30;51827;51.186;6.926;2022-07-15T02:56:18;25.49;52.04
65239;SHT30;51827;51.186;6.926;2022-07-15T02:57:19;25.46;52.09
65239;SHT30;51827;51.186;6.926;2022-07-15T02:58:19;25.47;52.09
65239;SHT30;51827;51.186;6.926;2022-07-15T02:59:19;25.47;52.06
65239;SHT30;51827;51.186;6.926;2022-07-15T03:00:20;25.45;52.09
65239;SHT30;51827;51.186;6.926;2022-07-15T03:01:20;25.47;52.09
65239;SHT30;51827;51.186;6.926;2022-07-15T03:02:20;25.45;52.09
65239;SHT30;51827;51.186;6.926;2022-07-15T03:03:20;25.46;52.07
65239;SHT30;51827;51.186;6.926;2022-07-15T03:04:21;25.43;52.07
65239;SHT30;51827;51.186;6.926;2022-07-15T03:05:21;25.45;52.09
65239;SHT30;51827;51.186;6.926;2022-07-15T03:06:21;25.46;52.09
65239;SHT30;51827;51.186;6.926;2022-07-15T03:07:22;25.45;52.15
65239;SHT30;51827;51.186;6.926;2022-07-15T03:08:22;25.46;52.11
65239;SHT30;51827;51.186;6.926;2022-07-15T03:09:22;25.43;52.09
65239;SHT30;51827;51.186;6.926;2022-07-15T03:10:23;25.45;52.05
65239;SHT30;51827;51.186;6.926;2022-07-15T03:11:23;25.43;52.07
65239;SHT30;51827;51.186;6.926;2022-07-15T03:12:23;25.49;52.09
65239;SHT30;51827;51.186;6.926;2022-07-15T03:13:24;25.43;52.09
65239;SHT30;51827;51.186;6.926;2022-07-15T03:14:24;25.43;52.09
65239;SHT30;51827;51.186;6.926;2022-07-15T03:15:25;25.43;52.06
65239;SHT30;51827;51.186;6.926;2022-07-15T03:16:25;25.43;52.09
65239;SHT30;51827;51.186;6.926;2022-07-15T03:17:26;25.45;52.06
65239;SHT30;51827;51.186;6.926;2022-07-15T03:18:26;25.43;52.12
65239;SHT30;51827;51.186;6.926;2022-07-15T03:19:26;25.43;52.12
65239;SHT30;51827;51.186;6.926;2022-07-15T03:20:27;25.46;52.11
65239;SHT30;51827;51.186;6.926;2022-07-15T03:21:27;25.43;52.12
65239;SHT30;51827;51.186;6.926;2022-07-15T03:22:28;25.43;52.12
65239;SHT30;51827;51.186;6.926;2022-07-15T03:23:28;25.42;52.11
65239;SHT30;51827;51.186;6.926;2022-07-15T03:24:28;25.42;52.12
65239;SHT30;51827;51.186;6.926;2022-07-15T03:25:28;25.43;52.11
65239;SHT30;51827;51.186;6.926;2022-07-15T03:26:29;25.43;52.11
65239;SHT30;51827;51.186;6.926;2022-07-15T03:27:29;25.42;52.13
65239;SHT30;51827;51.186;6.926;2022-07-15T03:28:29;25.43;52.13
65239;SHT30;51827;51.186;6.926;2022-07-15T03:29:29;25.43;52.12
65239;SHT30;51827;51.186;6.926;2022-07-15T03:30:30;25.42;52.16
65239;SHT30;51827;51.186;6.926;2022-07-15T03:31:30;25.42;52.17
65239;SHT30;51827;51.186;6.926;2022-07-15T03:32:30;25.43;52.12
65239;SHT30;51827;51.186;6.926;2022-07-15T03:33:31;25.43;52.12
65239;SHT30;51827;51.186;6.926;2022-07-15T03:34:31;25.42;52.16
65239;SHT30;51827;51.186;6.926;2022-07-15T03:35:31;25.43;52.13
65239;SHT30;51827;51.186;6.926;2022-07-15T03:36:31;25.43;52.15
65239;SHT30;51827;51.186;6.926;2022-07-15T03:37:32;25.39;52.14
65239;SHT30;51827;51.186;6.926;2022-07-15T03:38:32;25.39;52.12
65239;SHT30;51827;51.186;6.926;2022-07-15T03:39:32;25.42;52.14
65239;SHT30;51827;51.186;6.926;2022-07-15T03:40:32;25.39;52.13
65239;SHT30;51827;51.186;6.926;2022-07-15T03:41:33;25.40;52.13
65239;SHT30;51827;51.186;6.926;2022-07-15T03:42:34;25.42;52.08
65239;SHT30;51827;51.186;6.926;2022-07-15T03:43:34;25.42;52.10
65239;SHT30;51827;51.186;6.926;2022-07-15T03:44:34;25.39;52.14
65239;SHT30;51827;51.186;6.926;2022-07-15T03:45:34;25.40;52.13
65239;SHT30;51827;51.186;6.926;2022-07-15T03:46:35;25.43;52.10
65239;SHT30;51827;51.186;6.926;2022-07-15T03:47:35;25.39;52.13
65239;SHT30;51827;51.186;6.926;2022-07-15T03:48:35;25.42;52.15
65239;SHT30;51827;51.186;6.926;2022-07-15T03:49:36;25.40;52.10
65239;SHT30;51827;51.186;6.926;2022-07-15T03:50:36;25.40;52.16
65239;SHT30;51827;51.186;6.926;2022-07-15T03:51:36;25.42;52.11
65239;SHT30;51827;51.186;6.926;2022-07-15T03:52:36;25.42;52.12
65239;SHT30;51827;51.186;6.926;2022-07-15T03:53:37;25.40;52.14
65239;SHT30;51827;51.186;6.926;2022-07-15T03:54:37;25.37;52.14
65239;SHT30;51827;51.186;6.926;2022-07-15T03:55:37;25.40;52.18
65239;SHT30;51827;51.186;6.926;2022-07-15T03:56:38;25.39;52.16
65239;SHT30;51827;51.186;6.926;2022-07-15T03:57:38;25.39;52.11
65239;SHT30;51827;51.186;6.926;2022-07-15T03:58:39;25.36;52.16
65239;SHT30;51827;51.186;6.926;2022-07-15T03:59:39;25.40;52.14
65239;SHT30;51827;51.186;6.926;2022-07-15T04:00:39;25.37;52.13
65239;SHT30;51827;51.186;6.926;2022-07-15T04:01:40;25.39;52.11
65239;SHT30;51827;51.186;6.926;2022-07-15T04:02:41;25.37;52.12
65239;SHT30;51827;51.186;6.926;2022-07-15T04:03:41;25.39;52.13
65239;SHT30;51827;51.186;6.926;2022-07-15T04:04:41;25.39;52.11
65239;SHT30;51827;51.186;6.926;2022-07-15T04:05:42;25.39;52.11
65239;SHT30;51827;51.186;6.926;2022-07-15T04:06:43;25.40;52.11
65239;SHT30;51827;51.186;6.926;2022-07-15T04:07:43;25.39;52.14
65239;SHT30;51827;51.186;6.926;2022-07-15T04:08:44;25.37;52.13
65239;SHT30;51827;51.186;6.926;2022-07-15T04:09:44;25.39;52.12
65239;SHT30;51827;51.186;6.926;2022-07-15T04:10:44;25.39;52.12
65239;SHT30;51827;51.186;6.926;2022-07-15T04:11:45;25.39;52.09
65239;SHT30;51827;51.186;6.926;2022-07-15T04:12:45;25.39;52.13
65239;SHT30;51827;51.186;6.926;2022-07-15T04:13:45;25.37;52.12
65239;SHT30;51827;51.186;6.926;2022-07-15T04:14:45;25.40;52.17
65239;SHT30;51827;51.186;6.926;2022-07-15T04:15:46;25.37;52.13
65239;SHT30;51827;51.186;6.926;2022-07-15T04:16:46;25.36;52.12
65239;SHT30;51827;51.186;6.926;2022-07-15T04:17:46;25.36;52.13
65239;SHT30;51827;51.186;6.926;2022-07-15T04:18:46;25.37;52.09
65239;SHT30;51827;51.186;6.926;2022-07-15T04:19:47;25.37;52.12
65239;SHT30;51827;51.186;6.926;2022-07-15T04:20:47;25.39;52.10
65239;SHT30;51827;51.186;6.926;2022-07-15T04:21:47;25.39;52.12
65239;SHT30;51827;51.186;6.926;2022-07-15T04:22:48;25.36;52.08
65239;SHT30;51827;51.186;6.926;2022-07-15T04:23:48;25.37;52.07
65239;SHT30;51827;51.186;6.926;2022-07-15T04:24:48;25.36;52.07
65239;SHT30;51827;51.186;6.926;2022-07-15T04:25:49;25.37;52.09
65239;SHT30;51827;51.186;6.926;2022-07-15T04:26:49;25.36;52.08
65239;SHT30;51827;51.186;6.926;2022-07-15T04:27:49;25.35;52.05
65239;SHT30;51827;51.186;6.926;2022-07-15T04:28:49;25.37;52.09
65239;SHT30;51827;51.186;6.926;2022-07-15T04:29:50;25.36;52.12
65239;SHT30;51827;51.186;6.926;2022-07-15T04:30:50;25.36;52.09
65239;SHT30;51827;51.186;6.926;2022-07-15T04:31:50;25.37;52.12
65239;SHT30;51827;51.186;6.926;2022-07-15T04:32:51;25.33;52.08
65239;SHT30;51827;51.186;6.926;2022-07-15T04:33:51;25.36;52.07
65239;SHT30;51827;51.186;6.926;2022-07-15T04:34:51;25.35;52.12
65239;SHT30;51827;51.186;6.926;2022-07-15T04:35:51;25.35;52.10
65239;SHT30;51827;51.186;6.926;2022-07-15T04:36:52;25.36;52.11
65239;SHT30;51827;51.186;6.926;2022-07-15T04:37:52;25.33;52.10
65239;SHT30;51827;51.186;6.926;2022-07-15T04:38:52;25.35;52.10
65239;SHT30;51827;51.186;6.926;2022-07-15T04:39:52;25.35;52.08
65239;SHT30;51827;51.186;6.926;2022-07-15T04:40:53;25.36;52.11
65239;SHT30;51827;51.186;6.926;2022-07-15T04:41:53;25.33;52.09
65239;SHT30;51827;51.186;6.926;2022-07-15T04:42:53;25.36;52.06
65239;SHT30;51827;51.186;6.926;2022-07-15T04:43:54;25.35;52.09
65239;SHT30;51827;51.186;6.926;2022-07-15T04:44:54;25.36;52.08
65239;SHT30;51827;51.186;6.926;2022-07-15T04:45:54;25.33;52.09
65239;SHT30;51827;51.186;6.926;2022-07-15T04:46:54;25.35;52.00
65239;SHT30;51827;51.186;6.926;2022-07-15T04:47:55;25.36;52.08
65239;SHT30;51827;51.186;6.926;2022-07-15T04:48:55;25.33;52.05
65239;SHT30;51827;51.186;6.926;2022-07-15T04:49:55;25.33;52.08
65239;SHT30;51827;51.186;6.926;2022-07-15T04:50:56;25.32;52.08
65239;SHT30;51827;51.186;6.926;2022-07-15T04:51:56;25.35;52.06
65239;SHT30;51827;51.186;6.926;2022-07-15T04:52:56;25.35;52.08
65239;SHT30;51827;51.186;6.926;2022-07-15T04:53:57;25.33;52.09
65239;SHT30;51827;51.186;6.926;2022-07-15T04:54:57;25.32;52.06
65239;SHT30;51827;51.186;6.926;2022-07-15T04:55:57;25.35;52.08
65239;SHT30;51827;51.186;6.926;2022-07-15T04:56:57;25.35;52.06
65239;SHT30;51827;51.186;6.926;2022-07-15T04:57:58;25.32;51.99
65239;SHT30;51827;51.186;6.926;2022-07-15T04:58:58;25.33;52.05
65239;SHT30;51827;51.186;6.926;2022-07-15T04:59:59;25.32;52.08
65239;SHT30;51827;51.186;6.926;2022-07-15T05:00:59;25.35;52.04
65239;SHT30;51827;51.186;6.926;2022-07-15T05:01:59;25.32;52.03
65239;SHT30;51827;51.186;6.926;2022-07-15T05:03:00;25.32;52.02
65239;SHT30;51827;51.186;6.926;2022-07-15T05:04:00;25.33;52.06
65239;SHT30;51827;51.186;6.926;2022-07-15T05:05:00;25.32;52.04
65239;SHT30;51827;51.186;6.926;2022-07-15T05:06:01;25.35;52.00
65239;SHT30;51827;51.186;6.926;2022-07-15T05:07:01;25.35;52.03
65239;SHT30;51827;51.186;6.926;2022-07-15T05:08:02;25.32;52.00
65239;SHT30;51827;51.186;6.926;2022-07-15T05:09:02;25.32;52.03
65239;SHT30;51827;51.186;6.926;2022-07-15T05:10:07;25.32;52.10
65239;SHT30;51827;51.186;6.926;2022-07-15T05:11:07;25.32;52.05
65239;SHT30;51827;51.186;6.926;2022-07-15T05:12:08;25.27;52.01
65239;SHT30;51827;51.186;6.926;2022-07-15T05:13:08;25.33;52.06
65239;SHT30;51827;51.186;6.926;2022-07-15T05:14:08;25.30;52.05
65239;SHT30;51827;51.186;6.926;2022-07-15T05:15:09;25.33;52.05
65239;SHT30;51827;51.186;6.926;2022-07-15T05:16:10;25.33;52.00
65239;SHT30;51827;51.186;6.926;2022-07-15T05:17:10;25.32;52.04
65239;SHT30;51827;51.186;6.926;2022-07-15T05:18:10;25.32;52.00
65239;SHT30;51827;51.186;6.926;2022-07-15T05:19:10;25.30;52.03
65239;SHT30;51827;51.186;6.926;2022-07-15T05:20:11;25.30;52.03
65239;SHT30;51827;51.186;6.926;2022-07-15T05:21:12;25.30;52.05
65239;SHT30;51827;51.186;6.926;2022-07-15T05:22:12;25.30;52.06
65239;SHT30;51827;51.186;6.926;2022-07-15T05:23:12;25.32;52.07
65239;SHT30;51827;51.186;6.926;2022-07-15T05:24:12;25.30;52.03
65239;SHT30;51827;51.186;6.926;2022-07-15T05:25:13;25.35;52.02
65239;SHT30;51827;51.186;6.926;2022-07-15T05:26:14;25.32;52.03
65239;SHT30;51827;51.186;6.926;2022-07-15T05:27:15;25.29;52.05
65239;SHT30;51827;51.186;6.926;2022-07-15T05:28:15;25.30;52.03
65239;SHT30;51827;51.186;6.926;2022-07-15T05:29:15;25.32;52.04
65239;SHT30;51827;51.186;6.926;2022-07-15T05:30:15;25.29;51.99
65239;SHT30;51827;51.186;6.926;2022-07-15T05:31:16;25.29;52.04
65239;SHT30;51827;51.186;6.926;2022-07-15T05:32:16;25.30;52.02
65239;SHT30;51827;51.186;6.926;2022-07-15T05:33:16;25.30;52.07
65239;SHT30;51827;51.186;6.926;2022-07-15T05:34:17;25.30;51.99
65239;SHT30;51827;51.186;6.926;2022-07-15T05:35:17;25.27;52.01
65239;SHT30;51827;51.186;6.926;2022-07-15T05:36:18;25.29;52.03
65239;SHT30;51827;51.186;6.926;2022-07-15T05:37:18;25.30;51.99
65239;SHT30;51827;51.186;6.926;2022-07-15T05:38:19;25.30;52.01
65239;SHT30;51827;51.186;6.926;2022-07-15T05:39:19;25.29;51.98
65239;SHT30;51827;51.186;6.926;2022-07-15T05:40:20;25.29;51.98
65239;SHT30;51827;51.186;6.926;2022-07-15T05:41:21;25.26;52.01
65239;SHT30;51827;51.186;6.926;2022-07-15T05:42:22;25.29;51.98
65239;SHT30;51827;51.186;6.926;2022-07-15T05:43:22;25.27;51.98
65239;SHT30;51827;51.186;6.926;2022-07-15T05:44:22;25.29;51.99
65239;SHT30;51827;51.186;6.926;2022-07-15T05:45:22;25.30;51.98
65239;SHT30;51827;51.186;6.926;2022-07-15T05:46:23;25.27;51.98
65239;SHT30;51827;51.186;6.926;2022-07-15T05:47:23;25.29;52.00
65239;SHT30;51827;51.186;6.926;2022-07-15T05:48:23;25.27;51.96
65239;SHT30;51827;51.186;6.926;2022-07-15T05:49:24;25.29;51.96
65239;SHT30;51827;51.186;6.926;2022-07-15T05:50:24;25.30;51.94
65239;SHT30;51827;51.186;6.926;2022-07-15T05:51:24;25.27;51.96
65239;SHT30;51827;51.186;6.926;2022-07-15T05:52:24;25.26;52.01
65239;SHT30;51827;51.186;6.926;2022-07-15T05:53:25;25.27;52.02
65239;SHT30;51827;51.186;6.926;2022-07-15T05:54:25;25.29;51.96
65239;SHT30;51827;51.186;6.926;2022-07-15T05:55:25;25.27;51.98
65239;SHT30;51827;51.186;6.926;2022-07-15T05:56:26;25.29;51.92
65239;SHT30;51827;51.186;6.926;2022-07-15T05:57:26;25.27;51.97
65239;SHT30;51827;51.186;6.926;2022-07-15T05:58:26;25.30;51.94
65239;SHT30;51827;51.186;6.926;2022-07-15T05:59:26;25.26;51.96
65239;SHT30;51827;51.186;6.926;2022-07-15T06:00:27;25.29;51.95
65239;SHT30;51827;51.186;6.926;2022-07-15T06:01:27;25.30;51.91
65239;SHT30;51827;51.186;6.926;2022-07-15T06:02:27;25.29;51.93
65239;SHT30;51827;51.186;6.926;2022-07-15T06:03:28;25.29;51.95
65239;SHT30;51827;51.186;6.926;2022-07-15T06:04:28;25.27;51.97
65239;SHT30;51827;51.186;6.926;2022-07-15T06:05:28;25.27;51.92
65239;SHT30;51827;51.186;6.926;2022-07-15T06:06:29;25.30;51.94
65239;SHT30;51827;51.186;6.926;2022-07-15T06:07:29;25.29;51.93
65239;SHT30;51827;51.186;6.926;2022-07-15T06:08:29;25.27;51.91
65239;SHT30;51827;51.186;6.926;2022-07-15T06:09:30;25.29;51.94
65239;SHT30;51827;51.186;6.926;2022-07-15T06:10:30;25.26;51.89
65239;SHT30;51827;51.186;6.926;2022-07-15T06:11:30;25.27;51.94
65239;SHT30;51827;51.186;6.926;2022-07-15T06:12:31;25.29;51.89
65239;SHT30;51827;51.186;6.926;2022-07-15T06:13:31;25.30;51.93
65239;SHT30;51827;51.186;6.926;2022-07-15T06:14:31;25.29;51.94
65239;SHT30;51827;51.186;6.926;2022-07-15T06:15:31;25.29;51.94
65239;SHT30;51827;51.186;6.926;2022-07-15T06:16:32;25.30;51.93
65239;SHT30;51827;51.186;6.926;2022-07-15T06:17:32;25.29;51.94
65239;SHT30;51827;51.186;6.926;2022-07-15T06:18:33;25.25;51.93
65239;SHT30;51827;51.186;6.926;2022-07-15T06:19:33;25.26;51.97
65239;SHT30;51827;51.186;6.926;2022-07-15T06:20:33;25.26;51.95
65239;SHT30;51827;51.186;6.926;2022-07-15T06:21:34;25.26;51.91